createdAt,value
2023-03-20T00:01:30.217Z,31.15
2023-03-20T00:04:00.394Z,30.92
2023-03-20T00:06:33.740Z,32.90
2023-03-20T00:09:06.894Z,36.55
2023-03-20T00:11:43.105Z,31.17
2023-03-20T00:14:14.025Z,33.40
2023-03-20T00:16:48.394Z,33.08
2023-03-20T00:19:23.402Z,31.77
2023-03-20T00:21:52.775Z,34.25
2023-03-20T00:24:20.704Z,45.55
2023-03-20T00:26:49.733Z,27.23
2023-03-20T00:29:31.656Z,24.30
2023-03-20T00:31:59.662Z,20.25
2023-03-20T00:34:29.821Z,23.30
2023-03-20T00:36:58.340Z,21.42
2023-03-20T00:39:25.759Z,21.55
2023-03-20T00:42:06.142Z,20.75
2023-03-20T00:44:44.810Z,18.40
2023-03-20T00:47:18.394Z,23.85
2023-03-20T00:49:48.470Z,24.65
2023-03-20T00:52:17.989Z,20.63
2023-03-20T00:54:45.435Z,22.33
2023-03-20T00:57:33.442Z,24.73
2023-03-20T01:00:05.896Z,26.98
2023-03-20T01:02:34.324Z,26.35
2023-03-20T01:05:02.394Z,25.60
2023-03-20T01:07:29.778Z,23.75
2023-03-20T01:10:00.037Z,19.55
2023-03-20T01:12:28.432Z,20.95
2023-03-20T01:14:57.922Z,18.85
2023-03-20T01:17:29.473Z,19.10
2023-03-20T01:19:57.005Z,19.15
2023-03-20T01:22:24.840Z,20.85
2023-03-20T01:25:01.043Z,20.85
2023-03-20T01:27:28.498Z,19.83
2023-03-20T01:29:55.763Z,22.08
2023-03-20T01:32:23.282Z,19.92
2023-03-20T01:34:53.284Z,19.92
2023-03-20T01:37:28.541Z,18.83
2023-03-20T01:40:01.149Z,26.25
2023-03-20T01:42:32.328Z,20.70
2023-03-20T01:45:00.156Z,25.33
2023-03-20T01:47:29.897Z,23.67
2023-03-20T01:50:18.538Z,24.27
2023-03-20T01:52:54.246Z,20.52
2023-03-20T01:55:22.960Z,22.83
2023-03-20T01:57:59.270Z,24.08
2023-03-20T02:00:28.627Z,21.48
2023-03-20T02:02:57.008Z,22.95
2023-03-20T02:05:51.083Z,21.23
2023-03-20T02:08:21.715Z,17.45
2023-03-20T02:10:50.398Z,20.63
2023-03-20T02:13:26.425Z,20.17
2023-03-20T02:16:03.602Z,20.08
2023-03-20T02:18:52.232Z,19.80
2023-03-20T02:21:59.282Z,14.80
2023-03-20T02:24:41.401Z,20.83
2023-03-20T02:27:39.115Z,14.15
2023-03-20T02:30:44.334Z,17.85
2023-03-20T02:33:21.697Z,17.50
2023-03-20T02:36:01.948Z,14.90
2023-03-20T02:38:35.174Z,19.48
2023-03-20T02:41:12.263Z,17.63
2023-03-20T02:44:04.391Z,16.25
2023-03-20T02:47:03.720Z,17.17
2023-03-20T02:49:37.254Z,22.00
2023-03-20T02:52:16.976Z,21.08
2023-03-20T02:55:10.950Z,17.40
2023-03-20T02:57:45.209Z,23.98
2023-03-20T03:00:29.518Z,27.88
2023-03-20T03:03:14.939Z,21.02
2023-03-20T03:05:49.941Z,21.83
2023-03-20T03:08:21.159Z,25.85
2023-03-20T03:10:59.017Z,23.77
2023-03-20T03:13:30.275Z,30.70
2023-03-20T03:16:04.748Z,25.88
2023-03-20T03:18:36.278Z,23.58
2023-03-20T03:21:07.659Z,25.53
2023-03-20T03:23:45.208Z,24.67
2023-03-20T03:26:37.400Z,21.92
2023-03-20T03:29:13.002Z,22.08
2023-03-20T03:31:42.867Z,19.33
2023-03-20T03:34:17.921Z,19.17
2023-03-20T03:37:30.116Z,17.85
2023-03-20T03:40:17.854Z,17.30
2023-03-20T03:43:14.458Z,19.85
2023-03-20T03:45:55.266Z,18.75
2023-03-20T03:48:36.897Z,15.75
2023-03-20T03:51:12.137Z,16.40
2023-03-20T03:54:00.991Z,15.00
2023-03-20T03:56:32.069Z,21.10
2023-03-20T03:59:04.439Z,18.05
2023-03-20T04:01:35.787Z,16.30
2023-03-20T04:04:07.853Z,13.30
2023-03-20T04:06:35.518Z,19.92
2023-03-20T04:09:05.647Z,18.17
2023-03-20T04:11:32.925Z,18.23
2023-03-20T04:14:02.102Z,19.20
2023-03-20T04:16:29.586Z,18.52
2023-03-20T04:18:57.352Z,18.10
2023-03-20T04:21:25.088Z,15.23
2023-03-20T04:23:52.864Z,16.42
2023-03-20T04:26:23.729Z,16.23
2023-03-20T04:28:51.889Z,17.10
2023-03-20T04:31:47.700Z,17.67
2023-03-20T04:34:30.650Z,17.10
2023-03-20T04:37:08.742Z,15.82
2023-03-20T04:39:54.974Z,19.08
2023-03-20T04:42:24.878Z,18.80
2023-03-20T04:44:57.523Z,16.85
2023-03-20T04:47:25.605Z,17.23
2023-03-20T04:49:53.262Z,16.13
2023-03-20T04:52:21.077Z,15.73
2023-03-20T04:54:48.305Z,14.77
2023-03-20T04:57:16.358Z,17.60
2023-03-20T04:59:43.743Z,16.90
2023-03-20T05:02:15.137Z,16.15
2023-03-20T05:04:43.281Z,15.43
2023-03-20T05:07:11.513Z,17.20
2023-03-20T05:09:48.905Z,13.73
2023-03-20T05:12:19.972Z,13.88
2023-03-20T05:15:19.741Z,16.48
2023-03-20T05:18:05.590Z,16.95
2023-03-20T05:20:53.488Z,14.30
2023-03-20T05:23:48.575Z,18.10
2023-03-20T05:26:37.318Z,20.77
2023-03-20T05:29:17.403Z,17.70
2023-03-20T05:32:03.220Z,23.40
2023-03-20T05:34:36.934Z,22.67
2023-03-20T05:37:21.374Z,22.58
2023-03-20T05:40:15.940Z,22.15
2023-03-20T05:42:55.260Z,22.20
2023-03-20T05:45:34.741Z,19.48
2023-03-20T05:48:33.884Z,16.38
2023-03-20T05:51:24.097Z,18.33
2023-03-20T05:54:22.871Z,15.68
2023-03-20T05:57:19.701Z,14.63
2023-03-20T05:59:53.181Z,15.48
2023-03-20T06:02:47.873Z,16.42
2023-03-20T06:05:39.378Z,15.40
2023-03-20T06:08:09.964Z,19.33
2023-03-20T06:10:37.472Z,18.63
2023-03-20T06:13:04.982Z,19.58
2023-03-20T06:15:33.244Z,17.23
2023-03-20T06:18:11.371Z,16.40
2023-03-20T06:20:38.802Z,23.65
2023-03-20T06:23:06.368Z,32.58
2023-03-20T06:25:34.949Z,25.50
2023-03-20T06:28:02.789Z,23.33
2023-03-20T06:30:30.668Z,19.08
2023-03-20T06:33:02.001Z,17.40
2023-03-20T06:35:38.559Z,18.38
2023-03-20T06:38:06.473Z,25.23
2023-03-20T06:40:34.166Z,19.25
2023-03-20T06:43:01.895Z,16.55
2023-03-20T06:45:42.130Z,13.23
2023-03-20T06:48:22.175Z,20.58
2023-03-20T06:50:53.312Z,11.25
2023-03-20T06:53:24.370Z,12.43
2023-03-20T06:55:57.902Z,12.43
2023-03-20T06:58:27.141Z,14.65
2023-03-20T07:00:58.663Z,12.70
2023-03-20T07:03:49.165Z,12.75
2023-03-20T07:06:33.694Z,12.70
2023-03-20T07:09:13.406Z,11.00
2023-03-20T07:11:43.562Z,12.80
2023-03-20T07:14:21.435Z,15.07
2023-03-20T07:16:56.512Z,13.52
2023-03-20T07:19:24.407Z,12.77
2023-03-20T07:22:02.611Z,11.38
2023-03-20T07:24:39.176Z,13.45
2023-03-20T07:27:06.870Z,10.10
2023-03-20T07:29:35.664Z,13.63
2023-03-20T07:32:06.236Z,9.73
2023-03-20T07:35:05.064Z,10.50
2023-03-20T07:37:36.909Z,9.02
2023-03-20T07:40:06.112Z,9.32
2023-03-20T07:42:45.748Z,8.93
2023-03-20T07:45:18.539Z,9.13
2023-03-20T07:47:48.659Z,13.73
2023-03-20T07:50:16.999Z,9.82
2023-03-20T07:52:51.633Z,10.43
2023-03-20T07:55:26.530Z,10.43
2023-03-20T07:57:56.859Z,9.45
2023-03-20T08:00:28.232Z,9.45
2023-03-20T08:02:57.368Z,8.25
2023-03-20T08:05:25.372Z,10.15
2023-03-20T08:07:53.124Z,8.10
2023-03-20T08:10:21.013Z,8.57
2023-03-20T08:12:54.712Z,9.90
2023-03-20T08:15:25.311Z,8.73
2023-03-20T08:17:52.601Z,7.68
2023-03-20T08:20:20.157Z,8.40
2023-03-20T08:22:49.867Z,10.27
2023-03-20T08:25:17.336Z,12.57
2023-03-20T08:27:46.917Z,7.63
2023-03-20T08:30:48.208Z,8.85
2023-03-20T08:33:21.400Z,9.15
2023-03-20T08:39:21.986Z,8.60
2023-03-20T08:41:49.684Z,7.68
2023-03-20T08:44:17.522Z,7.72
2023-03-20T08:46:46.474Z,8.77
2023-03-20T08:49:14.302Z,8.90
2023-03-20T08:51:48.448Z,6.93
2023-03-20T08:57:17.359Z,8.93
2023-03-20T08:59:44.817Z,12.23
2023-03-20T09:02:15.420Z,9.40
2023-03-20T09:04:45.527Z,9.55
2023-03-20T09:07:12.903Z,6.43
2023-03-20T09:09:42.843Z,8.27
2023-03-20T09:12:14.915Z,8.13
2023-03-20T09:14:42.512Z,8.18
2023-03-20T09:17:11.708Z,7.75
2023-03-20T09:19:46.146Z,9.55
2023-03-20T09:22:18.314Z,8.32
2023-03-20T09:24:48.250Z,6.90
2023-03-20T09:27:16.431Z,7.57
2023-03-20T09:29:44.275Z,8.52
2023-03-20T09:32:13.640Z,7.85
2023-03-20T09:34:41.141Z,7.10
2023-03-20T09:37:08.850Z,6.13
2023-03-20T09:43:54.510Z,8.55
2023-03-20T09:46:36.301Z,6.90
2023-03-20T09:49:35.239Z,6.32
2023-03-20T09:52:30.480Z,11.15
2023-03-20T09:55:14.355Z,6.00
2023-03-20T09:57:44.329Z,8.48
2023-03-20T10:00:18.307Z,8.07
2023-03-20T10:03:15.791Z,7.63
2023-03-20T10:05:54.526Z,7.10
2023-03-20T10:08:26.152Z,8.85
2023-03-20T10:10:59.978Z,10.43
2023-03-20T10:13:53.047Z,9.88
2023-03-20T10:16:45.031Z,7.88
2023-03-20T10:19:20.334Z,9.03
2023-03-20T10:22:26.028Z,8.82
2023-03-20T10:25:03.243Z,8.90
2023-03-20T10:27:46.427Z,8.52
2023-03-20T10:30:41.584Z,7.22
2023-03-20T10:33:27.413Z,7.55
2023-03-20T10:36:18.560Z,10.15
2023-03-20T10:39:18.119Z,8.60
2023-03-20T10:41:56.942Z,8.35
2023-03-20T10:44:43.403Z,11.38
2023-03-20T10:47:15.226Z,9.10
2023-03-20T10:49:56.345Z,9.45
2023-03-20T10:52:31.248Z,9.88
2023-03-20T10:55:03.479Z,6.80
2023-03-20T10:57:35.643Z,7.25
2023-03-20T11:00:05.317Z,7.82
2023-03-20T11:02:36.909Z,7.90
2023-03-20T11:05:22.950Z,6.93
2023-03-20T11:08:00.002Z,7.95
2023-03-20T11:10:28.028Z,8.85
2023-03-20T11:12:55.292Z,7.38
2023-03-20T11:15:32.539Z,7.93
2023-03-20T11:18:01.513Z,8.18
2023-03-20T11:20:41.344Z,6.30
2023-03-20T11:23:17.100Z,7.90
2023-03-20T11:25:50.370Z,7.93
2023-03-20T11:28:30.373Z,7.82
2023-03-20T11:31:05.746Z,8.05
2023-03-20T11:33:37.774Z,9.40
2023-03-20T11:36:20.996Z,8.85
2023-03-20T11:38:49.993Z,8.18
2023-03-20T11:41:22.245Z,8.63
2023-03-20T11:43:49.680Z,7.20
2023-03-20T11:46:17.062Z,11.25
2023-03-20T11:48:46.024Z,18.92
2023-03-20T11:51:24.639Z,7.80
2023-03-20T11:54:03.140Z,9.90
2023-03-20T11:56:35.668Z,11.15
2023-03-20T12:01:54.799Z,7.85
2023-03-20T12:04:42.985Z,10.30
2023-03-20T12:07:16.168Z,9.23
2023-03-20T12:09:49.335Z,16.48
2023-03-20T12:12:43.728Z,10.32
2023-03-20T12:15:13.839Z,12.73
2023-03-20T12:17:41.278Z,9.15
2023-03-20T12:20:43.669Z,9.57
2023-03-20T12:23:12.731Z,9.50
2023-03-20T12:26:04.307Z,8.77
2023-03-20T12:29:03.610Z,10.93
2023-03-20T12:31:46.178Z,12.18
2023-03-20T12:34:33.169Z,8.70
2023-03-20T12:37:02.713Z,8.68
2023-03-20T12:39:41.562Z,9.40
2023-03-20T12:42:09.617Z,10.05
2023-03-20T12:45:19.809Z,10.02
2023-03-20T12:48:05.440Z,10.57
2023-03-20T12:50:39.437Z,10.32
2023-03-20T12:53:27.295Z,10.73
2023-03-20T12:56:00.700Z,10.82
2023-03-20T12:58:51.782Z,9.88
2023-03-20T13:01:42.646Z,13.77
2023-03-20T13:04:28.189Z,20.75
2023-03-20T13:07:00.365Z,15.25
2023-03-20T13:09:48.912Z,10.23
2023-03-20T13:12:22.402Z,16.85
2023-03-20T13:25:40.196Z,29.38
2023-03-20T13:28:21.577Z,15.95
2023-03-20T13:33:52.461Z,11.30
2023-03-20T13:36:42.338Z,11.98
2023-03-20T13:39:22.465Z,10.98
2023-03-20T13:41:50.891Z,12.00
2023-03-20T13:44:21.298Z,9.80
2023-03-20T13:47:29.916Z,9.90
2023-03-20T13:50:35.952Z,12.95
2023-03-20T13:53:32.577Z,10.48
2023-03-20T13:56:17.102Z,13.57
2023-03-20T13:59:03.841Z,11.35
2023-03-20T14:01:37.738Z,10.77
2023-03-20T14:04:22.703Z,10.60
2023-03-20T14:06:59.528Z,8.88
2023-03-20T14:09:38.403Z,10.40
2023-03-20T14:12:11.318Z,11.10
2023-03-20T14:14:56.707Z,8.10
2023-03-20T14:17:30.898Z,8.43
2023-03-20T14:20:09.642Z,11.38
2023-03-20T14:22:42.335Z,9.50
2023-03-20T14:25:18.994Z,10.90
2023-03-20T14:28:07.079Z,19.23
2023-03-20T14:34:55.260Z,11.88
2023-03-20T14:37:57.008Z,40.58
2023-03-20T14:40:31.765Z,32.67
2023-03-20T14:43:20.081Z,20.05
2023-03-20T14:46:35.926Z,12.02
2023-03-20T14:49:27.573Z,12.65
2023-03-20T14:52:23.735Z,15.90
2023-03-20T14:58:26.176Z,9.52
2023-03-20T15:00:53.594Z,14.00
2023-03-20T15:03:33.191Z,10.57
2023-03-20T15:06:08.392Z,8.35
2023-03-20T15:08:54.429Z,14.75
2023-03-20T15:11:26.777Z,11.38
2023-03-20T15:13:57.269Z,12.75
2023-03-20T15:16:49.180Z,11.27
2023-03-20T15:19:22.664Z,13.68
2023-03-20T15:21:50.488Z,11.88
2023-03-20T15:24:23.696Z,28.85
2023-03-20T15:27:26.886Z,12.95
2023-03-20T15:29:56.724Z,21.48
2023-03-20T15:32:25.614Z,13.15
2023-03-20T15:34:57.229Z,8.32
2023-03-20T15:37:34.187Z,12.32
2023-03-20T15:40:17.092Z,11.05
2023-03-20T15:42:44.567Z,10.23
2023-03-20T15:45:46.709Z,13.15
2023-03-20T15:48:16.939Z,10.70
2023-03-20T15:51:00.684Z,13.20
2023-03-20T15:53:37.431Z,12.85
2023-03-20T15:56:17.814Z,15.77
2023-03-20T15:58:49.133Z,10.20
2023-03-20T16:01:27.737Z,12.70
2023-03-20T16:03:59.802Z,12.30
2023-03-20T16:06:27.331Z,14.07
2023-03-20T16:09:11.048Z,32.97
2023-03-20T16:11:44.523Z,12.95
2023-03-20T16:14:24.043Z,24.92
2023-03-20T16:16:53.741Z,30.17
2023-03-20T16:19:21.969Z,8.88
2023-03-20T16:21:56.480Z,11.07
2023-03-20T16:24:34.750Z,10.20
2023-03-20T16:27:10.019Z,8.88
2023-03-20T16:29:43.159Z,8.75
2023-03-20T16:32:31.223Z,8.80
2023-03-20T16:34:59.586Z,11.32
2023-03-20T16:37:32.175Z,11.75
2023-03-20T16:40:17.304Z,9.73
2023-03-20T16:42:45.663Z,12.23
2023-03-20T16:45:33.955Z,13.57
2023-03-20T16:48:11.171Z,15.20
2023-03-20T16:50:43.483Z,21.20
2023-03-20T16:53:20.423Z,16.92
2023-03-20T16:55:54.260Z,14.40
2023-03-20T16:58:29.323Z,18.77
2023-03-20T17:01:03.976Z,18.00
2023-03-20T17:03:55.933Z,19.13
2023-03-20T17:06:27.914Z,24.67
2023-03-20T17:09:01.629Z,34.67
2023-03-20T17:11:35.594Z,43.40
2023-03-20T17:14:04.646Z,46.42
2023-03-20T17:16:34.100Z,50.45
2023-03-20T17:19:21.845Z,48.97
2023-03-20T17:21:50.076Z,44.42
2023-03-20T17:24:19.149Z,43.55
2023-03-20T17:26:53.968Z,45.10
2023-03-20T17:29:22.110Z,28.17
2023-03-20T17:31:50.787Z,28.05
2023-03-20T17:34:18.788Z,33.10
2023-03-20T17:36:46.854Z,30.17
2023-03-20T17:39:21.744Z,27.00
2023-03-20T17:41:49.352Z,29.35
2023-03-20T17:44:16.995Z,27.98
2023-03-20T17:46:57.954Z,24.15
2023-03-20T17:49:27.786Z,25.23
2023-03-20T17:51:56.503Z,26.58
2023-03-20T17:54:24.263Z,21.85
2023-03-20T17:56:52.103Z,21.48
2023-03-20T17:59:20.211Z,23.70
2023-03-20T18:01:48.194Z,28.63
2023-03-20T18:04:16.211Z,27.50
2023-03-20T18:06:43.854Z,32.65
2023-03-20T18:09:15.437Z,44.75
2023-03-20T18:11:43.925Z,47.72
2023-03-20T18:14:12.804Z,47.72
2023-03-20T18:16:42.929Z,55.97
2023-03-20T18:19:27.030Z,63.83
2023-03-20T18:21:56.460Z,56.88
2023-03-20T18:24:27.027Z,76.75
2023-03-20T18:27:00.097Z,73.65
2023-03-20T18:29:34.312Z,73.68
2023-03-20T18:32:11.964Z,75.97
2023-03-20T18:34:41.909Z,50.95
2023-03-20T18:37:15.944Z,67.53
2023-03-20T18:39:45.616Z,96.95
2023-03-20T18:42:17.433Z,88.78
2023-03-20T18:44:45.924Z,179.13
2023-03-20T18:47:14.922Z,223.50
2023-03-20T18:49:42.845Z,88.20
2023-03-20T18:52:15.948Z,102.68
2023-03-20T18:55:05.374Z,44.45
2023-03-20T18:57:33.614Z,108.80
2023-03-20T19:00:02.922Z,186.75
2023-03-20T19:02:35.523Z,216.00
2023-03-20T19:05:03.871Z,134.88
2023-03-20T19:07:32.870Z,68.20
2023-03-20T19:10:01.241Z,60.35
2023-03-20T19:12:30.984Z,28.75
2023-03-20T19:14:59.362Z,38.13
2023-03-20T19:17:30.045Z,30.70
2023-03-20T19:19:58.376Z,32.47
2023-03-20T19:22:29.670Z,38.05
2023-03-20T19:24:58.443Z,37.42
2023-03-20T19:27:26.880Z,32.85
2023-03-20T19:29:57.330Z,36.92
2023-03-20T19:32:27.004Z,26.40
2023-03-20T19:35:38.966Z,32.88
2023-03-20T19:37:43.365Z,33.45
2023-03-20T19:40:42.897Z,36.53
2023-03-20T19:43:15.495Z,38.17
2023-03-20T19:45:45.666Z,41.63
2023-03-20T19:48:22.632Z,38.63
2023-03-20T19:50:56.060Z,49.30
2023-03-20T19:53:29.947Z,47.75
2023-03-20T19:55:58.938Z,44.38
2023-03-20T19:58:32.581Z,38.17
2023-03-20T20:01:01.024Z,35.30
2023-03-20T20:03:29.541Z,38.10
2023-03-20T20:06:05.632Z,34.13
2023-03-20T20:08:46.935Z,35.75
2023-03-20T20:11:20.154Z,36.78
2023-03-20T20:14:10.021Z,32.10
2023-03-20T20:16:47.175Z,34.08
2023-03-20T20:19:15.802Z,25.73
2023-03-20T20:24:35.369Z,28.98
2023-03-20T20:27:16.194Z,31.02
2023-03-20T20:29:54.261Z,34.85
2023-03-20T20:32:26.123Z,34.28
2023-03-20T20:38:30.575Z,34.17
2023-03-20T20:40:38.286Z,36.90
2023-03-20T20:43:10.277Z,35.63
2023-03-20T20:45:39.000Z,33.33
2023-03-20T20:48:14.587Z,29.58
2023-03-20T20:50:46.759Z,30.05
2023-03-20T20:53:15.612Z,29.98
2023-03-20T20:55:43.480Z,36.78
2023-03-20T20:58:12.174Z,29.08
2023-03-20T21:00:51.737Z,31.92
2023-03-20T21:03:24.199Z,32.28
2023-03-20T21:05:52.137Z,27.10
2023-03-20T21:08:20.726Z,27.75
2023-03-20T21:10:49.032Z,28.40
2023-03-20T21:13:20.178Z,30.05
2023-03-20T21:15:49.095Z,25.90
2023-03-20T21:18:17.229Z,35.50
2023-03-20T21:20:44.823Z,32.63
2023-03-20T21:23:13.745Z,34.78
2023-03-20T21:25:44.658Z,33.88
2023-03-20T21:31:06.057Z,37.67
2023-03-20T21:33:35.942Z,51.67
2023-03-20T21:36:04.249Z,44.47
2023-03-20T21:39:06.915Z,42.55
2023-03-20T21:41:23.573Z,39.63
2023-03-20T21:43:51.114Z,37.15
2023-03-20T21:46:52.475Z,33.15
2023-03-20T21:55:33.874Z,27.70
2023-03-20T22:03:22.371Z,25.20
2023-03-20T22:06:59.190Z,24.02
2023-03-20T22:12:52.766Z,29.97
2023-03-20T22:17:59.886Z,24.65
2023-03-20T22:23:56.353Z,32.63
2023-03-20T22:29:45.216Z,29.38
2023-03-20T22:38:41.675Z,26.65
2023-03-20T22:44:30.621Z,29.50
2023-03-20T22:46:22.516Z,26.77
2023-03-20T22:48:50.744Z,32.58
2023-03-20T22:51:18.384Z,32.72
2023-03-20T22:53:47.746Z,28.30
2023-03-20T22:56:15.045Z,31.05
2023-03-20T22:58:42.298Z,28.75
2023-03-20T23:01:11.235Z,29.10
2023-03-20T23:03:41.939Z,33.45
2023-03-20T23:06:16.408Z,29.42
2023-03-20T23:08:50.689Z,27.60
2023-03-20T23:11:23.473Z,31.00
2023-03-20T23:13:54.461Z,32.53
2023-03-20T23:16:21.892Z,26.40
2023-03-20T23:18:49.125Z,27.02
2023-03-20T23:21:19.055Z,25.77
2023-03-20T23:23:46.266Z,26.73
2023-03-20T23:26:20.731Z,27.40
2023-03-20T23:28:50.064Z,28.58
2023-03-20T23:31:25.001Z,29.42
2023-03-20T23:33:58.538Z,28.23
2023-03-20T23:36:42.451Z,31.15
2023-03-20T23:39:13.190Z,29.17
2023-03-20T23:44:31.720Z,26.23
2023-03-20T23:47:01.377Z,27.55
2023-03-20T23:49:30.784Z,28.60
2023-03-20T23:52:01.099Z,27.08
2023-03-20T23:54:28.417Z,28.30
2023-03-20T23:56:55.618Z,33.30
2023-03-20T23:59:22.984Z,29.38
